Monterey Peninsula Airport
KMRY : rendu visible

Aérodrome :











RETROUVEZ-NOUS SUR...

 
LOGIN :

S'inscrire | Disclaimer

   EN    FR    IT 

 









Légende :    VFR   VFR Marginal   IFR   IFR Intensif   IFR Très Intensif
Visi : 
Plafond : 
>= 8 km
>= 3000ft
5 à 8 km
1000 à 3000 ft
1500m à 5 km
500 à 1000 ft
800 à 1500m
200 à 500 ft
< 800m
< 200 ft
Symboles :   Orages  Brouillard  Fortes neiges  Fortes précipitations  Vent > 20 kt






- Altitude de l'aérodrome : 257 ft
- Code IATA : MRY


KMRY - Monterey Peninsula

DERNIER METAR :
  • 242254Z 32006KT 10SM CLR 16/10 A3013 RMK AO2 SLP215 T01560100

METARs EXPIRÉS :
  • 242154Z 32005KT 8SM CLR 17/11 A3013 RMK AO2 SLP214 T01670106
  • 242054Z 32004KT 10SM CLR 19/10 A3014 RMK AO2 SLP218 T01890100 58020

TAF KMRY
Valide du 24 à 18h jusqu'au 25 à 18h UTC


241737Z 2418/2518 VRB04KT 6SM BR FEW008 SCT040
FM241900 32005KT P6SM FEW010 FEW040
FM250000 29005KT P6SM SCT008 SCT150
FM250400 VRB04KT 6SM BR BKN007 BKN030
FM251200 10004KT 5SM BR SCT007 BKN025
FM251500 10004KT 6SM BR FEW007 SCT025 BKN050



MET'MAP, la Météo Aéronautique d'un coup d'oeil ! - Copyright ORBIFLY Décembre 2007 - Disclaimer

ORBIFLY MET'MAP TEAM :

Programmation & Développement : Alexandra Zaïnal
Sur une idée originale de : Baudouin d'Aumeries
Assistance à la programmation : Marc-Olivier Méhu
Soutien technique & logistique : Manuel Goepfert

Contact : metmap@orbifly.com




SOURCES & CREDITS :

   NOAA       Earth
Advisory